createdAt,value
2018-08-11T00:01:53.641Z,14.30
2018-08-11T00:04:23.967Z,14.30
2018-08-11T00:06:54.366Z,14.20
2018-08-11T00:09:24.918Z,14.20
2018-08-11T00:11:55.219Z,14.10
2018-08-11T00:14:25.746Z,14.10
2018-08-11T00:16:56.270Z,14.00
2018-08-11T00:19:26.574Z,13.90
2018-08-11T00:21:57.095Z,13.80
2018-08-11T00:24:27.632Z,13.80
2018-08-11T00:26:58.280Z,13.80
2018-08-11T00:29:28.734Z,13.90
2018-08-11T00:31:58.933Z,13.90
2018-08-11T00:34:29.595Z,13.80
2018-08-11T00:37:00.174Z,13.80
2018-08-11T00:39:30.609Z,13.70
2018-08-11T00:42:01.090Z,13.70
2018-08-11T00:44:31.606Z,13.70
2018-08-11T00:47:01.878Z,13.70
2018-08-11T00:49:32.434Z,13.70
2018-08-11T00:52:02.947Z,13.70
2018-08-11T00:54:33.444Z,13.70
2018-08-11T00:57:03.865Z,13.70
2018-08-11T00:59:34.694Z,13.70
2018-08-11T01:02:05.198Z,13.80
2018-08-11T01:04:35.718Z,13.80
2018-08-11T01:07:06.343Z,13.90
2018-08-11T01:09:36.695Z,14.00
2018-08-11T01:12:07.044Z,13.90
2018-08-11T01:14:37.441Z,13.90
2018-08-11T01:17:07.931Z,13.80
2018-08-11T01:19:38.350Z,13.70
2018-08-11T01:22:09.213Z,13.60
2018-08-11T01:24:39.656Z,13.50
2018-08-11T01:27:10.222Z,13.60
2018-08-11T01:29:40.660Z,13.60
2018-08-11T01:32:11.298Z,13.70
2018-08-11T01:34:41.706Z,13.60
2018-08-11T01:37:12.406Z,13.70
2018-08-11T01:39:42.986Z,13.60
2018-08-11T01:42:13.490Z,13.60
2018-08-11T01:44:44.059Z,13.40
2018-08-11T01:47:14.416Z,13.40
2018-08-11T01:49:45.136Z,13.40
2018-08-11T01:52:15.451Z,13.40
2018-08-11T01:54:45.790Z,13.30
2018-08-11T01:57:16.317Z,13.30
2018-08-11T01:59:46.794Z,13.20
2018-08-11T02:02:17.251Z,13.20
2018-08-11T02:04:47.851Z,13.20
2018-08-11T02:07:18.257Z,13.20
2018-08-11T02:09:48.771Z,13.20
2018-08-11T02:12:19.093Z,13.20
2018-08-11T02:14:49.561Z,13.20
2018-08-11T02:17:19.987Z,13.20
2018-08-11T02:19:50.502Z,13.20
2018-08-11T02:22:20.788Z,13.00
2018-08-11T02:24:51.188Z,13.00
2018-08-11T02:27:21.558Z,12.90
2018-08-11T02:29:51.976Z,12.90
2018-08-11T02:32:22.422Z,12.90
2018-08-11T02:34:52.842Z,12.90
2018-08-11T02:37:23.147Z,13.00
2018-08-11T02:39:53.739Z,12.90
2018-08-11T02:42:24.156Z,12.90
2018-08-11T02:44:54.652Z,12.80
2018-08-11T02:47:25.038Z,12.60
2018-08-11T02:49:55.361Z,12.50
2018-08-11T02:52:25.646Z,12.50
2018-08-11T02:54:56.090Z,12.50
2018-08-11T02:57:26.393Z,12.60
2018-08-11T02:59:56.764Z,12.60
2018-08-11T03:02:27.148Z,12.70
2018-08-11T03:04:57.671Z,12.90
2018-08-11T03:07:28.032Z,12.90
2018-08-11T03:09:58.531Z,13.00
2018-08-11T03:12:29.114Z,13.00
2018-08-11T03:14:59.465Z,13.00
2018-08-11T03:17:29.891Z,13.10
2018-08-11T03:20:00.294Z,13.00
2018-08-11T03:22:30.596Z,13.00
2018-08-11T03:25:01.250Z,12.90
2018-08-11T03:27:31.625Z,12.90
2018-08-11T03:30:01.948Z,12.90
2018-08-11T03:32:32.666Z,12.90
2018-08-11T03:35:03.265Z,12.90
2018-08-11T03:37:33.987Z,12.90
2018-08-11T03:40:05.087Z,12.90
2018-08-11T03:42:35.698Z,12.90
2018-08-11T03:45:06.304Z,12.80
2018-08-11T03:47:36.732Z,12.60
2018-08-11T03:50:07.673Z,12.50
2018-08-11T03:52:38.485Z,12.50
2018-08-11T03:55:09.011Z,12.40
2018-08-11T03:57:39.515Z,12.40
2018-08-11T04:00:12.000Z,12.40
2018-08-11T04:02:42.341Z,12.30
2018-08-11T04:05:12.807Z,12.30
2018-08-11T04:07:43.440Z,12.30
2018-08-11T04:10:13.870Z,12.30
2018-08-11T04:12:44.269Z,12.30
2018-08-11T04:15:14.526Z,12.40
2018-08-11T04:17:44.973Z,12.50
2018-08-11T04:20:15.190Z,12.50
2018-08-11T04:22:45.538Z,12.50
2018-08-11T04:25:15.901Z,12.60
2018-08-11T04:27:46.355Z,12.70
2018-08-11T04:30:16.699Z,12.90
2018-08-11T04:32:46.949Z,13.10
2018-08-11T04:35:17.478Z,13.30
2018-08-11T04:37:47.762Z,13.40
2018-08-11T04:40:18.202Z,13.40
2018-08-11T04:42:48.557Z,13.50
2018-08-11T04:45:19.165Z,13.60
2018-08-11T04:47:49.540Z,13.70
2018-08-11T04:50:19.878Z,13.80
2018-08-11T04:52:50.289Z,13.80
2018-08-11T04:55:20.710Z,13.90
2018-08-11T04:57:51.238Z,14.00
2018-08-11T05:00:21.635Z,14.00
2018-08-11T05:02:51.874Z,14.20
2018-08-11T05:05:22.643Z,14.40
2018-08-11T05:07:53.032Z,14.70
2018-08-11T05:10:23.428Z,15.00
2018-08-11T05:12:53.735Z,15.40
2018-08-11T05:15:24.039Z,15.90
2018-08-11T05:17:54.121Z,16.50
2018-08-11T05:20:24.518Z,16.60
2018-08-11T05:22:54.932Z,16.80
2018-08-11T05:25:25.431Z,16.70
2018-08-11T05:27:55.765Z,16.50
2018-08-11T05:30:26.219Z,16.40
2018-08-11T05:32:56.619Z,16.30
2018-08-11T05:35:27.107Z,16.30
2018-08-11T05:37:57.756Z,16.20
2018-08-11T05:40:28.054Z,16.30
2018-08-11T05:42:58.391Z,16.40
2018-08-11T05:45:28.826Z,16.40
2018-08-11T05:47:59.520Z,16.50
2018-08-11T05:50:30.094Z,16.50
2018-08-11T05:53:00.613Z,16.40
2018-08-11T05:55:31.160Z,16.50
2018-08-11T05:58:01.691Z,16.50
2018-08-11T06:00:32.188Z,16.50
2018-08-11T06:03:02.644Z,16.50
2018-08-11T06:05:33.170Z,16.50
2018-08-11T06:08:03.693Z,16.50
2018-08-11T06:10:34.103Z,16.80
2018-08-11T06:13:04.544Z,17.80
2018-08-11T06:15:35.041Z,19.20
2018-08-11T06:18:05.427Z,19.90
2018-08-11T06:20:35.879Z,20.30
2018-08-11T06:23:06.707Z,21.00
2018-08-11T06:25:37.201Z,21.60
2018-08-11T06:28:07.615Z,21.60
2018-08-11T06:30:37.954Z,22.00
2018-08-11T06:33:08.586Z,22.70
2018-08-11T06:35:38.918Z,22.90
2018-08-11T06:38:09.365Z,23.50
2018-08-11T06:40:40.424Z,24.10
2018-08-11T06:43:10.865Z,23.60
2018-08-11T06:45:41.799Z,23.60
2018-08-11T06:48:12.425Z,24.70
2018-08-11T06:50:42.724Z,24.60
2018-08-11T06:53:13.342Z,24.90
2018-08-11T06:55:43.762Z,24.40
2018-08-11T06:58:14.332Z,24.20
2018-08-11T07:00:44.642Z,23.80
2018-08-11T07:03:15.145Z,23.50
2018-08-11T07:05:45.688Z,23.70
2018-08-11T07:08:16.130Z,23.80
2018-08-11T07:10:46.505Z,24.50
2018-08-11T07:13:16.884Z,24.80
2018-08-11T07:15:47.275Z,25.20
2018-08-11T07:18:17.512Z,25.00
2018-08-11T07:20:47.945Z,24.20
2018-08-11T07:23:18.392Z,23.80
2018-08-11T07:25:48.768Z,24.70
2018-08-11T07:28:19.225Z,24.20
2018-08-11T07:30:49.636Z,24.20
2018-08-11T07:33:20.124Z,24.70
2018-08-11T07:35:50.478Z,24.80
2018-08-11T07:38:20.920Z,25.60
2018-08-11T07:40:51.500Z,25.70
2018-08-11T07:43:21.916Z,25.70
2018-08-11T07:45:52.571Z,25.00
2018-08-11T07:48:22.980Z,24.90
2018-08-11T07:50:53.423Z,25.60
2018-08-11T07:53:24.083Z,24.80
2018-08-11T07:55:54.554Z,24.20
2018-08-11T07:58:24.849Z,24.50
2018-08-11T08:00:55.249Z,24.90
2018-08-11T08:03:25.637Z,24.90
2018-08-11T08:05:56.044Z,24.20
2018-08-11T08:08:26.293Z,24.70
2018-08-11T08:10:56.763Z,24.70
2018-08-11T08:13:27.221Z,24.50
2018-08-11T08:15:57.517Z,25.20
2018-08-11T08:18:28.011Z,26.80
2018-08-11T08:20:58.416Z,26.80
2018-08-11T08:23:28.794Z,26.60
2018-08-11T08:25:59.185Z,26.30
2018-08-11T08:28:29.547Z,26.80
2018-08-11T08:30:59.998Z,26.10
2018-08-11T08:33:30.550Z,26.00
2018-08-11T08:36:01.371Z,25.70
2018-08-11T08:38:31.788Z,25.10
2018-08-11T08:41:02.190Z,26.10
2018-08-11T08:43:32.753Z,25.70
2018-08-11T08:46:03.135Z,26.30
2018-08-11T08:48:33.574Z,26.30
2018-08-11T08:51:06.354Z,26.40
2018-08-11T08:53:37.165Z,26.00
2018-08-11T08:56:07.452Z,25.90
2018-08-11T08:58:37.798Z,26.20
2018-08-11T09:01:08.299Z,26.20
2018-08-11T09:03:38.762Z,26.80
2018-08-11T09:06:09.122Z,27.20
2018-08-11T09:08:39.377Z,26.40
2018-08-11T09:11:09.742Z,25.50
2018-08-11T09:13:40.268Z,24.80
2018-08-11T09:16:10.769Z,24.80
2018-08-11T09:18:41.114Z,24.90
2018-08-11T09:21:12.058Z,25.60
2018-08-11T09:23:42.462Z,26.10
2018-08-11T09:26:12.907Z,26.30
2018-08-11T09:28:43.290Z,26.10
2018-08-11T09:31:13.683Z,25.80
2018-08-11T09:33:44.326Z,25.70
2018-08-11T09:36:14.783Z,25.60
2018-08-11T09:38:45.141Z,26.20
2018-08-11T09:41:15.531Z,27.10
2018-08-11T09:43:46.357Z,26.10
2018-08-11T09:46:16.652Z,25.90
2018-08-11T09:48:46.977Z,26.20
2018-08-11T09:51:17.670Z,25.30
2018-08-11T09:53:48.058Z,25.00
2018-08-11T09:56:18.628Z,24.70
2018-08-11T09:58:49.045Z,25.50
2018-08-11T10:01:24.180Z,25.90
2018-08-11T10:03:54.649Z,26.80
2018-08-11T10:06:25.082Z,27.30
2018-08-11T10:08:55.487Z,27.20
2018-08-11T10:11:26.100Z,27.00
2018-08-11T10:13:56.466Z,27.00
2018-08-11T10:16:26.931Z,27.30
2018-08-11T10:18:57.326Z,27.80
2018-08-11T10:21:27.741Z,28.70
2018-08-11T10:23:58.208Z,27.60
2018-08-11T10:26:28.809Z,27.40
2018-08-11T10:28:59.206Z,28.40
2018-08-11T10:31:29.746Z,28.30
2018-08-11T10:34:00.103Z,28.70
2018-08-11T10:36:30.417Z,27.30
2018-08-11T10:39:01.028Z,27.50
2018-08-11T10:41:31.458Z,27.00
2018-08-11T10:44:01.754Z,28.00
2018-08-11T10:46:32.330Z,28.60
2018-08-11T10:49:02.666Z,28.40
2018-08-11T10:51:32.909Z,27.90
2018-08-11T10:54:03.342Z,28.30
2018-08-11T10:56:33.993Z,27.50
2018-08-11T10:59:04.463Z,26.30
2018-08-11T11:01:34.927Z,26.70
2018-08-11T11:04:05.394Z,27.60
2018-08-11T11:06:35.953Z,27.50
2018-08-11T11:09:08.970Z,27.10
2018-08-11T11:11:39.579Z,27.30
2018-08-11T11:14:10.153Z,27.10
2018-08-11T11:16:40.498Z,27.00
2018-08-11T11:19:10.840Z,27.10
2018-08-11T11:21:41.287Z,26.50
2018-08-11T11:24:12.111Z,27.00
2018-08-11T11:26:42.581Z,27.60
2018-08-11T11:29:13.083Z,28.60
2018-08-11T11:31:44.051Z,27.90
2018-08-11T11:34:15.011Z,27.50
2018-08-11T11:36:45.366Z,27.60
2018-08-11T11:39:15.930Z,28.20
2018-08-11T11:41:46.335Z,27.60
2018-08-11T11:44:16.809Z,26.70
2018-08-11T11:46:47.141Z,27.50
2018-08-11T11:49:17.480Z,28.20
2018-08-11T11:51:47.914Z,29.00
2018-08-11T11:54:18.402Z,29.90
2018-08-11T11:56:48.803Z,30.00
2018-08-11T11:59:19.296Z,28.60
2018-08-11T12:01:49.670Z,28.60
2018-08-11T12:04:20.267Z,28.20
2018-08-11T12:06:50.539Z,29.40
2018-08-11T12:09:21.052Z,29.10
2018-08-11T12:11:51.650Z,29.20
2018-08-11T12:14:22.201Z,30.40
2018-08-11T12:16:52.534Z,31.70
2018-08-11T12:19:22.887Z,32.40
2018-08-11T12:21:53.434Z,30.60
2018-08-11T12:24:24.034Z,31.20
2018-08-11T12:26:54.456Z,31.70
2018-08-11T12:29:25.013Z,32.90
2018-08-11T12:31:55.518Z,32.90
2018-08-11T12:34:25.782Z,32.00
2018-08-11T12:36:56.275Z,32.20
2018-08-11T12:39:26.690Z,31.20
2018-08-11T12:41:57.258Z,30.70
2018-08-11T12:44:27.801Z,30.60
2018-08-11T12:46:58.041Z,30.60
2018-08-11T12:49:28.575Z,30.20
2018-08-11T12:51:59.144Z,30.90
2018-08-11T12:54:29.428Z,32.00
2018-08-11T12:56:59.878Z,31.10
2018-08-11T12:59:30.214Z,31.30
2018-08-11T13:02:00.526Z,33.40
2018-08-11T13:04:30.885Z,34.20
2018-08-11T13:07:01.336Z,34.40
2018-08-11T13:09:31.805Z,35.40
2018-08-11T13:12:02.267Z,36.50
2018-08-11T13:14:32.603Z,35.60
2018-08-11T13:17:03.211Z,36.10
2018-08-11T13:19:33.466Z,35.20
2018-08-11T13:22:03.818Z,34.90
2018-08-11T13:24:34.216Z,36.40
2018-08-11T13:27:04.403Z,36.50
2018-08-11T13:29:34.846Z,36.90
2018-08-11T13:32:05.372Z,36.90
2018-08-11T13:34:35.904Z,37.20
2018-08-11T13:37:06.522Z,38.10
2018-08-11T13:39:36.930Z,37.50
2018-08-11T13:42:07.491Z,33.60
2018-08-11T13:44:37.942Z,31.90
2018-08-11T13:47:08.464Z,31.60
2018-08-11T13:49:38.915Z,32.40
2018-08-11T13:52:11.558Z,31.90
2018-08-11T13:54:41.965Z,31.80
2018-08-11T13:57:12.495Z,32.90
2018-08-11T13:59:43.125Z,35.10
2018-08-11T14:02:13.968Z,35.30
2018-08-11T14:04:44.427Z,35.80
2018-08-11T14:07:14.888Z,36.90
2018-08-11T14:09:45.214Z,37.60
2018-08-11T14:12:15.843Z,38.10
2018-08-11T14:14:46.339Z,38.10
2018-08-11T14:17:16.827Z,38.80
2018-08-11T14:19:47.274Z,36.80
2018-08-11T14:22:17.605Z,36.30
2018-08-11T14:24:47.882Z,37.00
2018-08-11T14:27:18.364Z,36.00
2018-08-11T14:29:48.741Z,36.70
2018-08-11T14:32:19.110Z,36.90
2018-08-11T14:34:49.355Z,36.00
2018-08-11T14:37:19.670Z,36.80
2018-08-11T14:39:50.281Z,37.10
2018-08-11T14:42:20.635Z,36.40
2018-08-11T14:44:50.978Z,37.30
2018-08-11T14:47:21.395Z,37.70
2018-08-11T14:49:52.714Z,37.60
2018-08-11T14:52:23.011Z,37.90
2018-08-11T14:54:53.235Z,37.00
2018-08-11T14:57:23.702Z,35.80
2018-08-11T14:59:54.063Z,36.00
2018-08-11T15:02:24.554Z,35.80
2018-08-11T15:04:55.117Z,35.30
2018-08-11T15:07:25.558Z,35.90
2018-08-11T15:09:55.958Z,36.60
2018-08-11T15:12:26.471Z,36.60
2018-08-11T15:14:56.936Z,36.60
2018-08-11T15:17:27.190Z,35.60
2018-08-11T15:19:57.586Z,35.00
2018-08-11T15:22:27.891Z,34.40
2018-08-11T15:24:58.205Z,34.50
2018-08-11T15:27:28.551Z,33.40
2018-08-11T15:29:59.053Z,32.10
2018-08-11T15:32:29.418Z,32.30
2018-08-11T15:34:59.894Z,32.30
2018-08-11T15:37:30.269Z,32.60
2018-08-11T15:40:00.702Z,32.50
2018-08-11T15:42:30.999Z,33.30
2018-08-11T15:45:01.279Z,34.50
2018-08-11T15:47:31.723Z,33.40
2018-08-11T15:50:01.977Z,33.80
2018-08-11T15:52:32.450Z,34.90
2018-08-11T15:55:02.842Z,35.40
2018-08-11T15:57:33.308Z,36.10
2018-08-11T16:00:03.903Z,37.00
2018-08-11T16:02:34.180Z,37.40
2018-08-11T16:05:04.653Z,37.20
2018-08-11T16:07:35.237Z,37.30
2018-08-11T16:10:06.343Z,37.70
2018-08-11T16:12:36.773Z,37.70
2018-08-11T16:15:07.191Z,37.40
2018-08-11T16:17:37.591Z,37.80
2018-08-11T16:20:07.913Z,37.40
2018-08-11T16:22:38.366Z,36.60
2018-08-11T16:25:08.738Z,36.10
2018-08-11T16:27:39.125Z,35.80
2018-08-11T16:30:12.949Z,35.40
2018-08-11T16:32:43.366Z,35.80
2018-08-11T16:35:13.948Z,35.50
2018-08-11T16:37:44.455Z,35.20
2018-08-11T16:40:14.824Z,35.40
2018-08-11T16:42:45.164Z,34.60
2018-08-11T16:45:15.432Z,34.90
2018-08-11T16:47:45.717Z,34.50
2018-08-11T16:50:16.107Z,34.40
2018-08-11T16:52:46.500Z,33.90
2018-08-11T16:55:16.774Z,33.20
2018-08-11T16:57:47.300Z,32.80
2018-08-11T17:00:17.762Z,32.20
2018-08-11T17:02:48.103Z,31.40
2018-08-11T17:05:18.485Z,31.30
2018-08-11T17:07:49.122Z,31.20
2018-08-11T17:10:19.435Z,30.90
2018-08-11T17:12:49.797Z,30.50
2018-08-11T17:15:20.355Z,30.20
2018-08-11T17:17:50.849Z,29.80
2018-08-11T17:20:21.359Z,29.10
2018-08-11T17:22:51.724Z,28.10
2018-08-11T17:25:22.161Z,27.10
2018-08-11T17:27:52.371Z,26.10
2018-08-11T17:30:22.765Z,25.40
2018-08-11T17:32:53.233Z,24.90
2018-08-11T17:35:23.591Z,24.50
2018-08-11T17:37:54.041Z,24.30
2018-08-11T17:40:24.674Z,24.20
2018-08-11T17:42:55.098Z,24.10
2018-08-11T17:45:25.466Z,23.90
2018-08-11T17:47:56.054Z,23.70
2018-08-11T17:50:26.340Z,23.60
2018-08-11T17:52:56.754Z,23.40
2018-08-11T17:55:27.283Z,23.30
2018-08-11T17:57:57.546Z,23.30
2018-08-11T18:00:27.928Z,23.20
2018-08-11T18:02:58.279Z,23.00
2018-08-11T18:05:28.706Z,23.00
2018-08-11T18:07:59.258Z,22.80
2018-08-11T18:10:29.657Z,22.70
2018-08-11T18:13:00.288Z,22.50
2018-08-11T18:15:30.794Z,22.40
2018-08-11T18:18:01.267Z,22.30
2018-08-11T18:20:31.661Z,22.20
2018-08-11T18:23:02.111Z,22.10
2018-08-11T18:25:32.522Z,21.90
2018-08-11T18:28:02.931Z,21.80
2018-08-11T18:30:33.426Z,21.70
2018-08-11T18:33:03.915Z,21.60
2018-08-11T18:35:34.432Z,21.40
2018-08-11T18:38:04.839Z,21.30
2018-08-11T18:40:35.191Z,21.20
2018-08-11T18:43:05.507Z,21.20
2018-08-11T18:45:35.881Z,21.10
2018-08-11T18:48:06.623Z,21.00
2018-08-11T18:50:36.892Z,20.80
2018-08-11T18:53:07.570Z,20.60
2018-08-11T18:55:38.017Z,20.50
2018-08-11T18:58:08.731Z,20.40
2018-08-11T19:00:39.235Z,20.20
2018-08-11T19:03:10.030Z,20.10
2018-08-11T19:05:40.466Z,19.90
2018-08-11T19:08:11.306Z,19.80
2018-08-11T19:10:41.719Z,19.70
2018-08-11T19:13:12.785Z,19.60
2018-08-11T19:15:43.478Z,19.50
2018-08-11T19:18:13.827Z,19.40
2018-08-11T19:20:44.482Z,19.20
2018-08-11T19:23:14.855Z,19.10
2018-08-11T19:25:45.458Z,19.00
2018-08-11T19:28:16.214Z,18.80
2018-08-11T19:30:46.487Z,18.60
2018-08-11T19:33:17.040Z,18.50
2018-08-11T19:35:47.474Z,18.50
2018-08-11T19:38:17.822Z,18.40
2018-08-11T19:40:48.230Z,18.30
2018-08-11T19:43:18.605Z,18.20
2018-08-11T19:45:48.964Z,18.00
2018-08-11T19:48:19.294Z,17.90
2018-08-11T19:50:49.730Z,17.80
2018-08-11T19:53:20.510Z,17.70
2018-08-11T19:55:50.871Z,17.60
2018-08-11T19:58:21.336Z,17.50
2018-08-11T20:00:51.658Z,17.30
2018-08-11T20:03:22.183Z,17.20
2018-08-11T20:05:52.538Z,17.10
2018-08-11T20:08:23.146Z,17.10
2018-08-11T20:10:53.464Z,17.10
2018-08-11T20:13:23.907Z,17.10
2018-08-11T20:15:54.371Z,16.90
2018-08-11T20:18:24.645Z,16.80
2018-08-11T20:20:55.150Z,16.80
2018-08-11T20:23:25.551Z,16.70
2018-08-11T20:25:55.848Z,16.70
2018-08-11T20:28:26.246Z,16.70
2018-08-11T20:30:56.868Z,16.60
2018-08-11T20:33:27.273Z,16.60
2018-08-11T20:35:57.843Z,16.50
2018-08-11T20:38:28.187Z,16.30
2018-08-11T20:40:58.932Z,16.30
2018-08-11T20:43:29.383Z,16.20
2018-08-11T20:45:59.991Z,16.20
2018-08-11T20:48:30.482Z,16.10
2018-08-11T20:51:00.768Z,16.10
2018-08-11T20:53:31.102Z,16.10
2018-08-11T20:56:01.679Z,16.10
2018-08-11T20:58:32.110Z,16.10
2018-08-11T21:01:02.648Z,16.10
2018-08-11T21:03:33.383Z,16.10
2018-08-11T21:06:03.751Z,16.10
2018-08-11T21:08:34.575Z,16.00
2018-08-11T21:11:04.909Z,16.10
2018-08-11T21:13:35.140Z,16.00
2018-08-11T21:16:05.674Z,16.10
2018-08-11T21:18:36.040Z,16.10
2018-08-11T21:21:06.502Z,16.10
2018-08-11T21:23:37.236Z,16.10
2018-08-11T21:26:07.711Z,16.00
2018-08-11T21:28:38.223Z,15.90
2018-08-11T21:31:08.887Z,15.90
2018-08-11T21:33:39.586Z,15.90
2018-08-11T21:36:09.899Z,15.90
2018-08-11T21:38:40.234Z,15.90
2018-08-11T21:41:10.767Z,15.80
2018-08-11T21:43:41.459Z,15.70
2018-08-11T21:46:11.958Z,15.70
2018-08-11T21:48:42.442Z,15.70
2018-08-11T21:51:12.976Z,15.60
2018-08-11T21:53:43.303Z,15.60
2018-08-11T21:56:13.691Z,15.60
2018-08-11T21:58:44.384Z,15.50
2018-08-11T22:01:16.826Z,15.40
2018-08-11T22:03:47.322Z,15.60
2018-08-11T22:06:18.022Z,15.60
2018-08-11T22:08:48.463Z,15.60
2018-08-11T22:11:18.897Z,15.50
2018-08-11T22:13:49.412Z,15.50
2018-08-11T22:16:19.884Z,15.50
2018-08-11T22:18:50.251Z,15.40
2018-08-11T22:21:20.570Z,15.30
2018-08-11T22:23:51.039Z,15.40
2018-08-11T22:26:21.462Z,15.40
2018-08-11T22:28:51.985Z,15.40
2018-08-11T22:31:22.570Z,15.40
2018-08-11T22:33:52.941Z,15.30
2018-08-11T22:36:23.326Z,15.30
2018-08-11T22:38:53.802Z,15.20
2018-08-11T22:41:24.091Z,15.20
2018-08-11T22:43:54.623Z,15.10
2018-08-11T22:46:25.030Z,15.10
2018-08-11T22:48:55.611Z,15.10
2018-08-11T22:51:26.213Z,15.00
2018-08-11T22:53:56.850Z,15.00
2018-08-11T22:56:27.377Z,14.90
2018-08-11T22:58:57.659Z,14.90
2018-08-11T23:01:28.351Z,14.80
2018-08-11T23:03:58.903Z,14.70
2018-08-11T23:06:29.677Z,14.80
2018-08-11T23:09:00.293Z,14.80
2018-08-11T23:11:30.773Z,14.90
2018-08-11T23:14:01.122Z,14.90
2018-08-11T23:16:31.774Z,14.80
2018-08-11T23:19:02.331Z,14.60
2018-08-11T23:21:32.927Z,14.50
2018-08-11T23:24:03.370Z,14.40
2018-08-11T23:26:34.037Z,14.30
2018-08-11T23:29:04.430Z,14.40
2018-08-11T23:31:34.953Z,14.40
2018-08-11T23:34:05.360Z,14.30
2018-08-11T23:36:35.839Z,14.30
2018-08-11T23:39:08.599Z,14.30
2018-08-11T23:41:39.310Z,14.20
2018-08-11T23:44:09.834Z,14.20
2018-08-11T23:46:40.400Z,14.10
2018-08-11T23:49:11.024Z,14.00
2018-08-11T23:51:41.510Z,14.00
2018-08-11T23:54:11.875Z,14.00
2018-08-11T23:56:42.263Z,14.10
2018-08-11T23:59:12.793Z,14.10
